Terminal Aerodrome Forecast
Issued by NWS

Home | Current Version | Previous Version | Text Only | Print | Product List | Glossary On
Versions: 1 2 3 4 5 6 7 8 9 10 11 12 13 14 15 16 17 18 19 20 21 22 23 24 25 26
000
FTUS42 KRAH 210201 AAA
TAFINT
TAF AMD
KINT 210201Z 2102/2124 08006KT P6SM OVC035
     FM210300 04005KT 5SM -SHRA OVC025
     FM210600 33005KT 3SM -RA BR OVC015
     FM211200 VRB04KT P6SM BKN020
     FM211400 29005KT P6SM BKN035
     FM211800 26007KT P6SM OVC050=

USA.gov is the U.S. government's official web portal to all federal, state and local government web resources and services.